createdAt,value
2023-04-21T00:00:49.860Z,2.20
2023-04-21T00:03:16.632Z,2.20
2023-04-21T00:05:43.568Z,2.20
2023-04-21T00:08:10.407Z,2.10
2023-04-21T00:10:37.080Z,2.20
2023-04-21T00:13:03.757Z,2.20
2023-04-21T00:15:30.538Z,2.10
2023-04-21T00:17:58.979Z,2.10
2023-04-21T00:20:29.153Z,2.10
2023-04-21T00:22:56.246Z,2.10
2023-04-21T00:25:23.449Z,2.20
2023-04-21T00:27:50.572Z,2.10
2023-04-21T00:30:17.404Z,2.10
2023-04-21T00:32:44.262Z,4.50
2023-04-21T00:35:11.290Z,2.00
2023-04-21T00:37:38.264Z,1.90
2023-04-21T00:40:05.820Z,1.90
2023-04-21T00:42:32.829Z,1.80
2023-04-21T00:44:59.577Z,1.80
2023-04-21T00:47:26.983Z,1.80
2023-04-21T00:49:53.786Z,1.70
2023-04-21T00:52:20.797Z,1.80
2023-04-21T00:54:47.530Z,1.80
2023-04-21T00:57:14.174Z,1.70
2023-04-21T00:59:40.992Z,1.70
2023-04-21T01:02:07.726Z,1.60
2023-04-21T01:04:39.258Z,1.60
2023-04-21T01:07:07.235Z,1.50
2023-04-21T01:09:34.062Z,1.40
2023-04-21T01:12:04.679Z,1.40
2023-04-21T01:14:31.801Z,1.20
2023-04-21T01:16:59.236Z,1.20
2023-04-21T01:19:28.863Z,1.20
2023-04-21T01:21:58.446Z,1.30
2023-04-21T01:24:25.345Z,1.30
2023-04-21T01:26:52.390Z,1.20
2023-04-21T01:29:19.320Z,1.10
2023-04-21T01:31:48.215Z,1.10
2023-04-21T01:34:14.889Z,1.10
2023-04-21T01:36:41.552Z,1.00
2023-04-21T01:39:08.222Z,1.10
2023-04-21T01:41:34.944Z,1.20
2023-04-21T01:44:01.545Z,1.30
2023-04-21T01:46:28.438Z,1.30
2023-04-21T01:48:55.166Z,1.40
2023-04-21T01:51:21.934Z,1.40
2023-04-21T01:53:48.522Z,1.40
2023-04-21T01:56:15.351Z,1.40
2023-04-21T01:58:41.928Z,1.50
2023-04-21T02:01:08.691Z,1.50
2023-04-21T02:03:35.964Z,1.50
2023-04-21T02:06:02.753Z,1.50
2023-04-21T02:08:29.780Z,1.70
2023-04-21T02:10:56.514Z,1.80
2023-04-21T02:13:23.138Z,1.80
2023-04-21T02:15:51.601Z,1.90
2023-04-21T02:18:26.207Z,2.00
2023-04-21T02:20:53.115Z,2.10
2023-04-21T02:23:19.808Z,2.10
2023-04-21T02:25:46.530Z,2.20
2023-04-21T02:28:13.169Z,2.20
2023-04-21T02:30:41.426Z,2.30
2023-04-21T02:33:09.248Z,2.30
2023-04-21T02:35:36.099Z,4.40
2023-04-21T02:38:07.460Z,2.30
2023-04-21T02:40:34.364Z,2.40
2023-04-21T02:43:01.860Z,2.40
2023-04-21T02:45:28.516Z,2.40
2023-04-21T02:47:55.531Z,2.40
2023-04-21T02:50:22.397Z,2.40
2023-04-21T02:52:49.250Z,2.40
2023-04-21T02:55:16.258Z,2.30
2023-04-21T02:57:43.100Z,2.20
2023-04-21T03:00:12.530Z,3.20
2023-04-21T03:02:39.470Z,2.10
2023-04-21T03:05:06.771Z,2.00
2023-04-21T03:07:33.649Z,2.00
2023-04-21T03:10:00.570Z,1.90
2023-04-21T03:12:27.215Z,1.80
2023-04-21T03:14:53.973Z,1.80
2023-04-21T03:17:20.643Z,1.80
2023-04-21T03:19:47.231Z,1.80
2023-04-21T03:22:13.900Z,1.80
2023-04-21T03:24:40.872Z,1.80
2023-04-21T03:27:09.853Z,1.80
2023-04-21T03:29:37.691Z,1.80
2023-04-21T03:32:04.546Z,1.80
2023-04-21T03:34:31.237Z,1.80
2023-04-21T03:36:58.170Z,1.70
2023-04-21T03:39:25.226Z,1.80
2023-04-21T03:41:52.304Z,1.70
2023-04-21T03:44:18.983Z,1.70
2023-04-21T03:46:45.832Z,1.70
2023-04-21T03:49:12.546Z,1.80
2023-04-21T03:51:39.526Z,1.80
2023-04-21T03:54:06.158Z,1.70
2023-04-21T03:56:32.926Z,1.70
2023-04-21T03:58:59.675Z,1.70
2023-04-21T04:01:26.372Z,1.60
2023-04-21T04:03:53.338Z,3.40
2023-04-21T04:06:20.266Z,1.60
2023-04-21T04:08:46.907Z,1.60
2023-04-21T04:11:13.706Z,1.60
2023-04-21T04:13:40.332Z,1.70
2023-04-21T04:16:07.287Z,1.70
2023-04-21T04:18:33.971Z,1.70
2023-04-21T04:21:05.367Z,1.70
2023-04-21T04:23:32.135Z,1.70
2023-04-21T04:25:58.853Z,1.80
2023-04-21T04:28:25.712Z,1.80
2023-04-21T04:30:53.100Z,1.90
2023-04-21T04:33:20.017Z,2.00
2023-04-21T04:35:47.690Z,2.00
2023-04-21T04:38:17.361Z,2.00
2023-04-21T04:40:44.070Z,2.00
2023-04-21T04:43:10.917Z,2.10
2023-04-21T04:45:38.870Z,2.00
2023-04-21T04:48:05.921Z,2.10
2023-04-21T04:50:32.679Z,2.10
2023-04-21T04:52:59.333Z,2.20
2023-04-21T04:55:26.295Z,2.30
2023-04-21T04:57:52.972Z,2.40
2023-04-21T05:00:19.958Z,2.40
2023-04-21T05:02:46.893Z,2.30
2023-04-21T05:05:14.207Z,2.30
2023-04-21T05:07:40.944Z,2.50
2023-04-21T05:10:07.797Z,2.40
2023-04-21T05:12:34.486Z,2.30
2023-04-21T05:15:01.173Z,2.40
2023-04-21T05:17:29.096Z,2.60
2023-04-21T05:19:55.797Z,4.90
2023-04-21T05:22:22.767Z,2.70
2023-04-21T05:24:49.770Z,2.80
2023-04-21T05:27:16.520Z,2.80
2023-04-21T05:29:43.210Z,2.80
2023-04-21T05:32:12.303Z,2.90
2023-04-21T05:34:39.139Z,3.80
2023-04-21T05:37:06.008Z,2.80
2023-04-21T05:39:32.683Z,2.90
2023-04-21T05:41:59.340Z,2.90
2023-04-21T05:44:26.058Z,2.90
2023-04-21T05:46:52.756Z,3.00
2023-04-21T05:49:19.631Z,2.90
2023-04-21T05:51:46.399Z,3.00
2023-04-21T05:54:13.107Z,3.00
2023-04-21T05:56:40.167Z,2.90
2023-04-21T05:59:07.104Z,2.90
2023-04-21T06:01:34.010Z,2.90
2023-04-21T06:04:02.663Z,2.80
2023-04-21T06:06:29.544Z,2.70
2023-04-21T06:08:56.269Z,2.70
2023-04-21T06:11:23.924Z,2.60
2023-04-21T06:13:51.183Z,2.70
2023-04-21T06:16:17.885Z,2.70
2023-04-21T06:18:44.535Z,2.60
2023-04-21T06:21:11.330Z,2.70
2023-04-21T06:23:37.965Z,2.80
2023-04-21T06:26:06.879Z,2.80
2023-04-21T06:28:34.439Z,4.50
2023-04-21T06:31:01.690Z,5.70
2023-04-21T06:33:28.575Z,2.90
2023-04-21T06:35:55.377Z,2.90
2023-04-21T06:38:22.455Z,2.90
2023-04-21T06:40:49.295Z,2.90
2023-04-21T06:43:16.473Z,3.00
2023-04-21T06:45:43.145Z,3.10
2023-04-21T06:48:09.848Z,3.30
2023-04-21T06:50:36.700Z,3.50
2023-04-21T06:53:03.367Z,3.70
2023-04-21T06:55:30.154Z,3.80
2023-04-21T06:57:56.784Z,3.90
2023-04-21T07:00:23.458Z,6.10
2023-04-21T07:02:50.572Z,4.00
2023-04-21T07:05:17.390Z,4.10
2023-04-21T07:07:44.227Z,4.10
2023-04-21T07:10:11.073Z,4.30
2023-04-21T07:12:37.810Z,4.40
2023-04-21T07:15:04.897Z,4.50
2023-04-21T07:17:31.737Z,4.60
2023-04-21T07:19:58.576Z,4.70
2023-04-21T07:22:25.332Z,4.70
2023-04-21T07:24:52.046Z,4.90
2023-04-21T07:27:19.441Z,5.00
2023-04-21T07:29:46.092Z,3.50
2023-04-21T07:32:12.811Z,5.20
2023-04-21T07:34:40.088Z,5.30
2023-04-21T07:37:06.691Z,5.40
2023-04-21T07:39:33.375Z,5.50
2023-04-21T07:42:00.012Z,5.60
2023-04-21T07:44:26.651Z,5.70
2023-04-21T07:46:53.375Z,5.80
2023-04-21T07:49:20.270Z,5.90
2023-04-21T07:51:46.989Z,6.10
2023-04-21T07:54:14.035Z,6.20
2023-04-21T07:56:40.856Z,6.30
2023-04-21T07:59:07.543Z,6.50
2023-04-21T08:01:34.307Z,6.60
2023-04-21T08:04:01.428Z,6.70
2023-04-21T08:06:29.014Z,6.50
2023-04-21T08:08:56.021Z,6.80
2023-04-21T08:11:22.970Z,6.80
2023-04-21T08:13:50.013Z,6.90
2023-04-21T08:16:16.793Z,7.00
2023-04-21T08:18:43.597Z,8.90
2023-04-21T08:21:10.333Z,7.20
2023-04-21T08:23:37.133Z,9.60
2023-04-21T08:26:03.859Z,7.40
2023-04-21T08:28:30.581Z,7.40
2023-04-21T08:30:57.405Z,7.40
2023-04-21T08:33:24.153Z,7.50
2023-04-21T08:36:02.410Z,7.50
2023-04-21T08:38:29.595Z,7.60
2023-04-21T08:40:59.003Z,7.60
2023-04-21T08:43:26.016Z,7.70
2023-04-21T08:45:54.449Z,7.80
2023-04-21T08:48:22.191Z,7.90
2023-04-21T08:50:49.585Z,8.00
2023-04-21T08:53:16.866Z,8.20
2023-04-21T08:55:44.078Z,8.30
2023-04-21T08:58:10.829Z,8.30
2023-04-21T09:00:37.601Z,8.40
2023-04-21T09:03:19.294Z,8.60
2023-04-21T09:06:00.828Z,11.10
2023-04-21T09:08:29.796Z,8.70
2023-04-21T09:10:57.153Z,8.80
2023-04-21T09:13:29.831Z,8.90
2023-04-21T09:15:56.443Z,10.10
2023-04-21T09:18:24.223Z,8.90
2023-04-21T09:20:52.428Z,9.00
2023-04-21T09:23:20.974Z,9.10
2023-04-21T09:25:47.649Z,9.20
2023-04-21T09:28:14.819Z,9.50
2023-04-21T09:30:42.261Z,9.40
2023-04-21T09:33:27.212Z,9.70
2023-04-21T09:35:56.164Z,9.80
2023-04-21T09:38:22.896Z,9.90
2023-04-21T09:40:59.109Z,10.60
2023-04-21T09:43:26.295Z,10.00
2023-04-21T09:45:53.939Z,11.30
2023-04-21T09:48:22.600Z,10.00
2023-04-21T09:53:21.964Z,11.50
2023-04-21T09:55:52.191Z,12.80
2023-04-21T09:58:20.442Z,11.50
2023-04-21T10:00:47.386Z,10.10
2023-04-21T10:03:14.550Z,12.80
2023-04-21T10:05:44.595Z,10.30
2023-04-21T10:08:12.079Z,12.80
2023-04-21T10:10:39.307Z,12.60
2023-04-21T10:13:06.222Z,12.20
2023-04-21T10:15:33.186Z,12.90
2023-04-21T10:18:12.815Z,12.70
2023-04-21T10:20:50.982Z,10.90
2023-04-21T10:23:29.354Z,11.00
2023-04-21T10:26:01.781Z,11.20
2023-04-21T10:28:41.736Z,13.40
2023-04-21T10:31:20.761Z,11.40
2023-04-21T10:34:06.139Z,11.50
2023-04-21T10:36:35.155Z,11.80
2023-04-21T10:39:04.053Z,12.00
2023-04-21T10:41:32.087Z,14.30
2023-04-21T10:44:14.097Z,13.50
2023-04-21T10:46:45.721Z,12.40
2023-04-21T10:49:15.692Z,12.60
2023-04-21T10:52:00.936Z,14.90
2023-04-21T10:54:29.573Z,12.50
2023-04-21T10:56:57.496Z,14.20
2023-04-21T10:59:24.691Z,13.30
2023-04-21T11:01:51.718Z,12.60
2023-04-21T11:04:19.843Z,15.50
2023-04-21T11:07:07.005Z,14.00
2023-04-21T11:09:34.558Z,12.90
2023-04-21T11:12:02.739Z,12.80
2023-04-21T11:14:29.802Z,12.80
2023-04-21T11:16:56.731Z,12.90
2023-04-21T11:19:25.319Z,13.00
2023-04-21T11:21:54.131Z,13.10
2023-04-21T11:24:23.926Z,13.10
2023-04-21T11:26:51.273Z,12.50
2023-04-21T11:29:18.016Z,13.40
2023-04-21T11:31:48.034Z,13.60
2023-04-21T11:34:16.096Z,13.70
2023-04-21T11:36:43.977Z,13.80
2023-04-21T11:39:13.677Z,13.90
2023-04-21T11:41:44.001Z,13.80
2023-04-21T11:44:11.556Z,13.90
2023-04-21T11:46:44.610Z,14.00
2023-04-21T11:49:12.017Z,14.10
2023-04-21T11:51:40.088Z,14.20
2023-04-21T11:54:07.948Z,14.20
2023-04-21T11:56:35.287Z,14.30
2023-04-21T11:59:06.601Z,15.40
2023-04-21T12:01:33.308Z,16.70
2023-04-21T12:04:00.248Z,15.50
2023-04-21T12:06:28.866Z,14.60
2023-04-21T12:08:57.015Z,14.80
2023-04-21T12:11:25.186Z,16.50
2023-04-21T12:13:51.927Z,14.90
2023-04-21T12:16:18.709Z,15.00
2023-04-21T12:18:45.417Z,15.10
2023-04-21T12:21:14.803Z,16.40
2023-04-21T12:23:41.562Z,15.50
2023-04-21T12:26:08.273Z,15.60
2023-04-21T12:28:35.350Z,15.60
2023-04-21T12:31:02.209Z,15.70
2023-04-21T12:33:29.064Z,15.80
2023-04-21T12:35:56.685Z,15.90
2023-04-21T12:38:23.528Z,15.90
2023-04-21T12:40:50.528Z,16.00
2023-04-21T12:43:17.214Z,16.00
2023-04-21T12:45:43.924Z,17.20
2023-04-21T12:48:10.894Z,15.70
2023-04-21T12:50:38.666Z,17.40
2023-04-21T12:53:05.475Z,15.70
2023-04-21T12:55:32.273Z,15.80
2023-04-21T12:57:59.154Z,16.20
2023-04-21T13:00:25.985Z,17.10
2023-04-21T13:02:52.760Z,15.90
2023-04-21T13:05:19.655Z,16.30
2023-04-21T13:07:47.622Z,16.00
2023-04-21T13:10:14.480Z,16.10
2023-04-21T13:12:42.138Z,16.50
2023-04-21T13:15:09.277Z,16.30
2023-04-21T13:17:35.986Z,16.40
2023-04-21T13:20:02.862Z,16.60
2023-04-21T13:22:29.708Z,16.70
2023-04-21T13:24:56.938Z,18.10
2023-04-21T13:27:23.777Z,19.30
2023-04-21T13:29:51.368Z,16.90
2023-04-21T13:32:18.183Z,17.00
2023-04-21T13:34:44.982Z,17.10
2023-04-21T13:37:16.112Z,17.10
2023-04-21T13:39:43.114Z,18.30
2023-04-21T13:42:10.025Z,17.40
2023-04-21T13:44:37.315Z,17.40
2023-04-21T13:47:06.142Z,17.50
2023-04-21T13:49:35.466Z,17.30
2023-04-21T13:52:02.267Z,17.20
2023-04-21T13:54:29.454Z,17.10
2023-04-21T13:56:57.028Z,17.10
2023-04-21T13:59:30.792Z,17.10
2023-04-21T14:01:57.777Z,17.00
2023-04-21T14:04:24.681Z,17.10
2023-04-21T14:06:51.793Z,18.00
2023-04-21T14:09:18.826Z,17.30
2023-04-21T14:11:45.836Z,17.50
2023-04-21T14:14:13.854Z,17.70
2023-04-21T14:16:43.647Z,17.10
2023-04-21T14:19:10.793Z,17.30
2023-04-21T14:21:37.662Z,17.10
2023-04-21T14:24:04.490Z,17.60
2023-04-21T14:26:31.373Z,17.20
2023-04-21T14:28:59.667Z,19.30
2023-04-21T14:31:26.428Z,17.40
2023-04-21T14:33:53.361Z,17.40
2023-04-21T14:36:20.941Z,17.60
2023-04-21T14:38:47.928Z,17.60
2023-04-21T14:41:14.729Z,17.70
2023-04-21T14:43:41.438Z,17.90
2023-04-21T14:46:08.616Z,18.00
2023-04-21T14:48:35.641Z,18.00
2023-04-21T14:51:02.466Z,18.10
2023-04-21T14:53:29.477Z,18.10
2023-04-21T14:55:56.170Z,17.80
2023-04-21T14:58:22.874Z,17.70
2023-04-21T15:00:49.929Z,17.60
2023-04-21T15:03:16.940Z,17.40
2023-04-21T15:05:44.067Z,16.80
2023-04-21T15:08:11.825Z,17.20
2023-04-21T15:10:38.758Z,18.70
2023-04-21T15:13:05.608Z,18.80
2023-04-21T15:15:34.937Z,17.30
2023-04-21T15:18:01.924Z,17.30
2023-04-21T15:20:40.998Z,17.40
2023-04-21T15:23:12.010Z,17.30
2023-04-21T15:25:39.914Z,17.70
2023-04-21T15:28:07.825Z,17.30
2023-04-21T15:30:34.649Z,17.30
2023-04-21T15:33:01.513Z,19.70
2023-04-21T15:35:28.303Z,17.50
2023-04-21T15:37:55.182Z,17.20
2023-04-21T15:40:21.953Z,17.00
2023-04-21T15:42:48.797Z,17.90
2023-04-21T15:45:18.124Z,16.90
2023-04-21T15:47:45.073Z,16.90
2023-04-21T15:50:11.874Z,16.80
2023-04-21T15:52:42.629Z,18.20
2023-04-21T15:55:12.637Z,16.90
2023-04-21T15:57:39.857Z,16.80
2023-04-21T16:00:10.320Z,16.70
2023-04-21T16:02:37.477Z,16.60
2023-04-21T16:05:04.680Z,16.40
2023-04-21T16:07:31.803Z,16.30
2023-04-21T16:09:58.638Z,16.20
2023-04-21T16:12:25.636Z,16.10
2023-04-21T16:14:59.580Z,18.50
2023-04-21T16:17:32.097Z,17.00
2023-04-21T16:19:58.926Z,16.00
2023-04-21T16:22:25.775Z,17.80
2023-04-21T16:24:53.310Z,16.00
2023-04-21T16:27:20.389Z,15.90
2023-04-21T16:29:47.401Z,16.60
2023-04-21T16:32:14.275Z,15.70
2023-04-21T16:34:41.603Z,15.60
2023-04-21T16:37:08.743Z,15.70
2023-04-21T16:39:35.778Z,17.20
2023-04-21T16:42:02.795Z,15.40
2023-04-21T16:44:29.591Z,17.80
2023-04-21T16:46:56.555Z,15.30
2023-04-21T16:49:23.540Z,15.20
2023-04-21T16:51:50.347Z,16.60
2023-04-21T16:54:17.286Z,15.20
2023-04-21T16:56:44.547Z,15.10
2023-04-21T16:59:13.673Z,16.80
2023-04-21T17:01:40.562Z,15.20
2023-04-21T17:04:07.370Z,15.20
2023-04-21T17:06:34.408Z,16.50
2023-04-21T17:09:01.214Z,15.20
2023-04-21T17:11:28.927Z,17.80
2023-04-21T17:13:55.735Z,14.90
2023-04-21T17:16:22.485Z,15.20
2023-04-21T17:18:49.204Z,14.80
2023-04-21T17:21:16.145Z,15.80
2023-04-21T17:23:43.006Z,14.70
2023-04-21T17:26:12.390Z,14.60
2023-04-21T17:28:39.875Z,15.90
2023-04-21T17:31:15.267Z,14.50
2023-04-21T17:33:44.874Z,14.50
2023-04-21T17:36:13.384Z,14.40
2023-04-21T17:38:43.163Z,14.40
2023-04-21T17:41:09.943Z,14.20
2023-04-21T17:43:36.681Z,16.00
2023-04-21T17:46:03.605Z,14.10
2023-04-21T17:48:30.380Z,14.00
2023-04-21T17:50:57.103Z,13.90
2023-04-21T17:53:23.856Z,13.80
2023-04-21T17:55:51.116Z,13.70
2023-04-21T17:58:18.585Z,13.60
2023-04-21T18:00:45.588Z,13.50
2023-04-21T18:03:12.563Z,13.40
2023-04-21T18:05:39.336Z,13.40
2023-04-21T18:08:06.033Z,14.70
2023-04-21T18:10:33.057Z,13.20
2023-04-21T18:13:00.145Z,13.10
2023-04-21T18:15:27.175Z,14.50
2023-04-21T18:17:54.071Z,12.90
2023-04-21T18:20:20.968Z,12.90
2023-04-21T18:22:49.039Z,12.80
2023-04-21T18:25:20.230Z,12.80
2023-04-21T18:27:51.435Z,15.50
2023-04-21T18:30:18.287Z,13.20
2023-04-21T18:32:45.096Z,12.60
2023-04-21T18:35:11.784Z,15.00
2023-04-21T18:37:38.616Z,15.50
2023-04-21T18:40:05.758Z,12.50
2023-04-21T18:42:32.473Z,12.50
2023-04-21T18:44:59.646Z,13.30
2023-04-21T18:47:26.953Z,12.40
2023-04-21T18:49:53.642Z,14.40
2023-04-21T18:54:54.884Z,12.30
2023-04-21T18:57:21.854Z,12.30
2023-04-21T18:59:48.572Z,12.50
2023-04-21T19:02:16.681Z,15.40
2023-04-21T19:04:46.553Z,12.30
2023-04-21T19:07:15.673Z,13.90
2023-04-21T19:09:43.350Z,10.80
2023-04-21T19:12:10.063Z,15.00
2023-04-21T19:14:46.480Z,12.30
2023-04-21T19:17:15.027Z,13.90
2023-04-21T19:19:44.342Z,14.90
2023-04-21T19:22:11.187Z,12.80
2023-04-21T19:24:38.215Z,14.90
2023-04-21T19:27:06.315Z,13.60
2023-04-21T19:29:33.434Z,16.70
2023-04-21T19:32:01.065Z,13.10
2023-04-21T19:34:28.197Z,15.30
2023-04-21T19:36:54.904Z,13.40
2023-04-21T19:39:21.613Z,14.40
2023-04-21T19:41:48.261Z,12.10
2023-04-21T19:44:15.132Z,15.20
2023-04-21T19:46:43.201Z,13.50
2023-04-21T19:49:13.228Z,14.90
2023-04-21T19:51:40.743Z,12.90
2023-04-21T19:54:11.578Z,12.00
2023-04-21T19:56:40.060Z,12.10
2023-04-21T19:59:07.132Z,12.10
2023-04-21T20:01:34.348Z,12.10
2023-04-21T20:04:01.368Z,12.30
2023-04-21T20:06:28.760Z,11.40
2023-04-21T20:08:57.307Z,13.50
2023-04-21T20:11:25.134Z,12.10
2023-04-21T20:13:52.788Z,13.80
2023-04-21T20:16:20.079Z,13.40
2023-04-21T20:18:47.031Z,14.00
2023-04-21T20:21:16.830Z,11.90
2023-04-21T20:23:43.531Z,11.80
2023-04-21T20:26:10.411Z,14.40
2023-04-21T20:28:37.139Z,12.20
2023-04-21T20:31:03.958Z,12.90
2023-04-21T20:33:30.705Z,11.60
2023-04-21T20:35:57.784Z,13.70
2023-04-21T20:38:25.064Z,11.60
2023-04-21T20:40:54.126Z,11.50
2023-04-21T20:43:21.427Z,11.50
2023-04-21T20:45:50.343Z,13.60
2023-04-21T20:48:17.072Z,11.60
2023-04-21T20:50:45.721Z,11.50
2023-04-21T20:53:13.248Z,11.40
2023-04-21T20:55:40.322Z,11.40
2023-04-21T20:58:07.047Z,11.40
2023-04-21T21:00:34.986Z,11.40
2023-04-21T21:03:02.186Z,11.30
2023-04-21T21:05:30.480Z,11.30
2023-04-21T21:07:57.225Z,12.20
2023-04-21T21:10:23.967Z,11.30
2023-04-21T21:12:50.648Z,13.50
2023-04-21T21:15:17.425Z,11.60
2023-04-21T21:17:44.224Z,11.60
2023-04-21T21:20:11.334Z,11.40
2023-04-21T21:22:38.074Z,11.40
2023-04-21T21:25:05.333Z,11.50
2023-04-21T21:27:31.993Z,11.40
2023-04-21T21:29:58.630Z,11.50
2023-04-21T21:32:25.282Z,11.50
2023-04-21T21:34:52.341Z,11.40
2023-04-21T21:37:19.452Z,11.40
2023-04-21T21:39:46.327Z,11.40
2023-04-21T21:42:13.127Z,11.40
2023-04-21T21:44:39.789Z,11.40
2023-04-21T21:47:06.701Z,11.60
2023-04-21T21:49:33.286Z,11.40
2023-04-21T21:51:59.982Z,13.00
2023-04-21T21:54:26.831Z,11.40
2023-04-21T21:56:53.508Z,11.30
2023-04-21T21:59:20.988Z,11.30
2023-04-21T22:01:48.412Z,11.30
2023-04-21T22:04:15.240Z,11.10
2023-04-21T22:06:42.515Z,10.90
2023-04-21T22:09:09.154Z,10.70
2023-04-21T22:11:37.068Z,10.60
2023-04-21T22:14:14.774Z,10.50
2023-04-21T22:16:50.583Z,10.50
2023-04-21T22:19:19.009Z,10.50
2023-04-21T22:21:46.115Z,10.50
2023-04-21T22:24:13.016Z,10.60
2023-04-21T22:26:39.765Z,10.60
2023-04-21T22:29:06.868Z,10.60
2023-04-21T22:31:33.877Z,11.90
2023-04-21T22:34:00.745Z,10.70
2023-04-21T22:36:27.498Z,10.70
2023-04-21T22:38:54.188Z,10.80
2023-04-21T22:41:21.241Z,12.00
2023-04-21T22:43:48.286Z,10.80
2023-04-21T22:46:15.223Z,10.70
2023-04-21T22:48:42.008Z,10.60
2023-04-21T22:51:08.733Z,10.70
2023-04-21T22:53:35.674Z,10.70
2023-04-21T22:56:02.516Z,10.60
2023-04-21T22:58:29.212Z,10.50
2023-04-21T23:00:56.075Z,10.40
2023-04-21T23:03:23.268Z,10.30
2023-04-21T23:05:50.034Z,10.20
2023-04-21T23:08:16.665Z,10.10
2023-04-21T23:10:43.365Z,12.90
2023-04-21T23:13:10.099Z,9.90
2023-04-21T23:15:36.781Z,9.90
2023-04-21T23:18:03.513Z,9.80
2023-04-21T23:20:31.206Z,9.70
2023-04-21T23:22:58.316Z,9.80
2023-04-21T23:25:25.631Z,9.70
2023-04-21T23:27:52.278Z,9.70
2023-04-21T23:30:19.053Z,9.70
2023-04-21T23:32:45.753Z,9.70
2023-04-21T23:35:12.563Z,9.70
2023-04-21T23:37:39.364Z,9.70
2023-04-21T23:40:11.440Z,9.70
2023-04-21T23:42:38.909Z,9.70
2023-04-21T23:45:06.511Z,9.70
2023-04-21T23:47:33.526Z,9.60
2023-04-21T23:50:00.540Z,9.60
2023-04-21T23:52:27.568Z,9.70
2023-04-21T23:54:54.326Z,9.70
2023-04-21T23:57:21.323Z,9.70
2023-04-21T23:59:48.040Z,9.70
